WEATHER/FLIGHT PLANNING

Hattiesburg Radar

 

 

 

 

Weather Links

Flight Planning Links

 

METAR

2016/08/24 20:53 KHBG 242053Z AUTO 00000KT 10SM CLR 33/24 A3010 RMK AO2 LTG DSNT N AND NE SLP189 T03330239 56019

TAF

2016/08/24 18:42 TAF KHBG 241741Z 2418/2518 VRB04KT P6SM SCT040 SCT060 FM242000 VRB04KT P6SM VCTS SCT040CB BKN060 FM250000 VRB03KT P6SM SKC FM250900 00000KT 5SM BR SKC FM251500 VRB03KT P6SM SCT035